»·PEaware :: N522PM KYKM-KPDX

N522PM :: KYKM-KPDX

FLIGHT INFORMATION

Flight Status: Arrived
Operator: Privately registered:
United States
More flights under this callsign
Pilot: Bruce B. (6887)
Aircraft: Unknown
(LEG2)
More flights by this aircraft type
Origin: KYKM Yakima Air Term/Mcallister
United States
Destination: KPDX Portland Intl
United States
More flights between these airports :: More routes between these airports
Route: GROMO4 HITCH V468 BTG
File this flight plan on PilotEdge
Remarks:
Altitude:
(Current/Filed)
12,000ft
Speed:
(Current/Filed)
230kts
Departed: 08-Feb-20 04:53 PM
Arrived: 08-Feb-20 05:37 PM
Distance/Time
Traveled:
103nm/0:44
Distance/Time
To Go:
Arrived

Flight Plot

Page will automatically refresh every two minutes.

Flight plan parsing failed; only flown route is shown


Map Options




Map Legend


Flown Route
Filed Route
Departure Airport
Arrival Airport
Navaid (VOR, NDB)
Fix

Horizontal Profiles

Position Reports

Time Latitude Longitude Heading Altitude Ground
Speed
08-Feb-20 16:37 46.567418 -120.530921 69 1098ft 0kts
08-Feb-20 16:38 46.567419 -120.530917 69 1098ft 0kts
08-Feb-20 16:39 46.567420 -120.530914 69 1098ft 0kts
08-Feb-20 16:40 46.567421 -120.530910 69 1098ft 0kts
08-Feb-20 16:41 46.567422 -120.530907 69 1098ft 0kts
08-Feb-20 16:42 46.567423 -120.530904 69 1098ft 0kts
08-Feb-20 16:43 46.567423 -120.530900 69 1098ft 0kts
08-Feb-20 16:44 46.567424 -120.530897 69 1098ft 0kts
08-Feb-20 16:45 46.567425 -120.530893 69 1098ft 0kts
08-Feb-20 16:46 46.567426 -120.530890 68 1098ft 0kts
08-Feb-20 16:47 46.567427 -120.530886 68 1098ft 0kts
08-Feb-20 16:48 46.567428 -120.530883 68 1098ft 0kts
08-Feb-20 16:49 46.567429 -120.530879 68 1098ft 0kts
08-Feb-20 16:50 46.566067 -120.531093 202 1098ft 0kts
08-Feb-20 16:51 46.566065 -120.531094 202 1098ft 0kts
08-Feb-20 16:52 46.567194 -120.538249 288 1107ft 89kts
08-Feb-20 16:53 46.572347 -120.585763 267 2718ft 128kts
08-Feb-20 16:54 46.571937 -120.640126 279 4460ft 134kts
08-Feb-20 16:55 46.561917 -120.692637 220 6067ft 150kts
08-Feb-20 16:56 46.526527 -120.668663 129 7625ft 148kts
08-Feb-20 16:57 46.493737 -120.631589 148 8829ft 149kts
08-Feb-20 16:58 46.455106 -120.604577 192 9846ft 161kts
08-Feb-20 16:59 46.428894 -120.652147 243 10892ft 155kts
08-Feb-20 17:00 46.403966 -120.704900 237 11851ft 164kts
08-Feb-20 17:01 46.371460 -120.761637 221 12027ft 207kts
08-Feb-20 17:02 46.327040 -120.818327 231 11981ft 231kts
08-Feb-20 17:03 46.284517 -120.888942 232 11978ft 234kts
08-Feb-20 17:04 46.240114 -120.957512 227 12068ft 234kts
08-Feb-20 17:05 46.192017 -121.021084 235 12075ft 234kts
08-Feb-20 17:06 46.152951 -121.096581 233 12075ft 235kts
08-Feb-20 17:07 46.108663 -121.166548 229 12084ft 236kts
08-Feb-20 17:08 46.063222 -121.235057 229 12107ft 236kts
08-Feb-20 17:09 46.017862 -121.303220 229 12114ft 236kts
08-Feb-20 17:10 45.974979 -121.373890 249 12129ft 230kts
08-Feb-20 17:11 45.958911 -121.461361 260 12130ft 221kts
08-Feb-20 17:12 45.941992 -121.544923 254 12136ft 215kts
08-Feb-20 17:13 45.925222 -121.626603 258 12144ft 212kts
08-Feb-20 17:14 45.909931 -121.708535 258 12149ft 212kts
08-Feb-20 17:15 45.895233 -121.788664 258 12155ft 211kts
08-Feb-20 17:16 45.880482 -121.870141 258 12162ft 211kts
08-Feb-20 17:17 45.850733 -121.943034 228 11226ft 216kts
08-Feb-20 17:18 45.813805 -121.993249 227 9722ft 164kts
08-Feb-20 17:19 45.777047 -122.039416 226 8247ft 176kts
08-Feb-20 17:20 45.739570 -122.085750 226 6748ft 177kts
08-Feb-20 17:21 45.704268 -122.130169 226 5546ft 167kts
08-Feb-20 17:22 45.669504 -122.170871 217 4992ft 154kts
08-Feb-20 17:23 45.637694 -122.198979 216 4983ft 122kts
08-Feb-20 17:24 45.607794 -122.225456 216 4119ft 127kts
08-Feb-20 17:25 45.578706 -122.252760 216 3048ft 113kts
08-Feb-20 17:26 45.553882 -122.276849 216 3003ft 111kts
08-Feb-20 17:27 45.529114 -122.300759 217 2994ft 106kts
08-Feb-20 17:28 45.508552 -122.329569 265 3020ft 104kts
08-Feb-20 17:29 45.507354 -122.370719 274 2983ft 96kts
08-Feb-20 17:30 45.520554 -122.405389 302 2645ft 108kts
08-Feb-20 17:31 45.535060 -122.442088 298 1980ft 104kts
08-Feb-20 17:32 45.548803 -122.478015 297 1394ft 103kts
08-Feb-20 17:33 45.562934 -122.514261 297 932ft 104kts
08-Feb-20 17:34 45.575989 -122.547463 296 392ft 89kts
08-Feb-20 17:35 45.586102 -122.573374 300 33ft 44kts
08-Feb-20 17:36 45.586459 -122.578463 213 33ft 12kts
08-Feb-20 17:37 45.585299 -122.579033 135 33ft 0kts
08-Feb-20 17:38 45.585299 -122.579033 135 33ft 0kts

Navigation Log

Ident Type
Flight plan parsing failed, navigation log unavailable